sensor_id;sensor_type;location;lat;lon;timestamp;P1;durP1;ratioP1;P2;durP2;ratioP2
14933;SDS011;7560;51.364;12.384;2023-03-05T00:03:42;5.07;;;1.80;;
14933;SDS011;7560;51.364;12.384;2023-03-05T00:08:44;3.90;;;1.58;;
14933;SDS011;7560;51.364;12.384;2023-03-05T00:13:46;4.57;;;1.80;;
14933;SDS011;7560;51.364;12.384;2023-03-05T00:18:48;4.53;;;1.52;;
14933;SDS011;7560;51.364;12.384;2023-03-05T00:23:50;3.55;;;1.50;;
14933;SDS011;7560;51.364;12.384;2023-03-05T00:28:53;5.68;;;1.80;;
14933;SDS011;7560;51.364;12.384;2023-03-05T00:33:58;5.45;;;1.35;;
14933;SDS011;7560;51.364;12.384;2023-03-05T00:39:01;4.65;;;1.52;;
14933;SDS011;7560;51.364;12.384;2023-03-05T00:44:03;5.60;;;1.65;;
14933;SDS011;7560;51.364;12.384;2023-03-05T00:49:05;6.35;;;1.42;;
14933;SDS011;7560;51.364;12.384;2023-03-05T00:54:07;8.77;;;1.55;;
14933;SDS011;7560;51.364;12.384;2023-03-05T00:59:09;4.47;;;1.25;;
14933;SDS011;7560;51.364;12.384;2023-03-05T01:04:10;4.90;;;1.13;;
14933;SDS011;7560;51.364;12.384;2023-03-05T01:09:12;4.97;;;1.08;;
14933;SDS011;7560;51.364;12.384;2023-03-05T01:14:14;2.55;;;0.95;;
14933;SDS011;7560;51.364;12.384;2023-03-05T01:19:16;1.67;;;0.80;;
14933;SDS011;7560;51.364;12.384;2023-03-05T01:24:18;3.70;;;1.00;;
14933;SDS011;7560;51.364;12.384;2023-03-05T01:29:19;2.47;;;0.88;;
14933;SDS011;7560;51.364;12.384;2023-03-05T01:34:21;4.95;;;0.95;;
14933;SDS011;7560;51.364;12.384;2023-03-05T01:39:23;5.32;;;0.90;;
14933;SDS011;7560;51.364;12.384;2023-03-05T01:44:26;1.20;;;0.75;;
14933;SDS011;7560;51.364;12.384;2023-03-05T01:49:32;5.05;;;1.05;;
14933;SDS011;7560;51.364;12.384;2023-03-05T01:54:42;3.53;;;0.80;;
14933;SDS011;7560;51.364;12.384;2023-03-05T01:59:48;5.75;;;1.10;;
14933;SDS011;7560;51.364;12.384;2023-03-05T02:04:54;2.97;;;0.93;;
14933;SDS011;7560;51.364;12.384;2023-03-05T02:10:00;1.83;;;0.70;;
14933;SDS011;7560;51.364;12.384;2023-03-05T02:15:02;3.00;;;0.95;;
14933;SDS011;7560;51.364;12.384;2023-03-05T02:20:07;3.20;;;1.05;;
14933;SDS011;7560;51.364;12.384;2023-03-05T02:25:19;2.88;;;0.82;;
14933;SDS011;7560;51.364;12.384;2023-03-05T02:30:22;2.80;;;1.00;;
14933;SDS011;7560;51.364;12.384;2023-03-05T02:35:25;4.15;;;1.02;;
14933;SDS011;7560;51.364;12.384;2023-03-05T02:40:27;2.25;;;0.80;;
14933;SDS011;7560;51.364;12.384;2023-03-05T02:45:28;5.63;;;1.17;;
14933;SDS011;7560;51.364;12.384;2023-03-05T02:50:30;5.00;;;1.10;;
14933;SDS011;7560;51.364;12.384;2023-03-05T02:55:33;3.85;;;1.45;;
14933;SDS011;7560;51.364;12.384;2023-03-05T03:00:35;5.78;;;1.58;;
14933;SDS011;7560;51.364;12.384;2023-03-05T03:05:36;6.80;;;1.52;;
14933;SDS011;7560;51.364;12.384;2023-03-05T03:10:38;4.55;;;1.58;;
14933;SDS011;7560;51.364;12.384;2023-03-05T03:15:40;2.97;;;1.50;;
14933;SDS011;7560;51.364;12.384;2023-03-05T03:20:42;5.10;;;1.90;;
14933;SDS011;7560;51.364;12.384;2023-03-05T03:25:43;5.45;;;1.55;;
14933;SDS011;7560;51.364;12.384;2023-03-05T03:30:45;3.75;;;1.50;;
14933;SDS011;7560;51.364;12.384;2023-03-05T03:35:47;3.83;;;1.85;;
14933;SDS011;7560;51.364;12.384;2023-03-05T03:40:49;5.93;;;1.73;;
14933;SDS011;7560;51.364;12.384;2023-03-05T03:45:51;3.90;;;2.10;;
14933;SDS011;7560;51.364;12.384;2023-03-05T03:50:52;5.18;;;1.83;;
14933;SDS011;7560;51.364;12.384;2023-03-05T03:55:56;5.47;;;1.60;;
14933;SDS011;7560;51.364;12.384;2023-03-05T04:00:59;4.57;;;2.00;;
14933;SDS011;7560;51.364;12.384;2023-03-05T04:06:01;5.47;;;1.80;;
14933;SDS011;7560;51.364;12.384;2023-03-05T04:11:03;5.00;;;1.65;;
14933;SDS011;7560;51.364;12.384;2023-03-05T04:16:05;2.78;;;1.40;;
14933;SDS011;7560;51.364;12.384;2023-03-05T04:21:07;3.15;;;1.70;;
14933;SDS011;7560;51.364;12.384;2023-03-05T04:26:09;4.75;;;1.50;;
14933;SDS011;7560;51.364;12.384;2023-03-05T04:31:11;3.97;;;1.20;;
14933;SDS011;7560;51.364;12.384;2023-03-05T04:36:13;5.45;;;1.40;;
14933;SDS011;7560;51.364;12.384;2023-03-05T04:41:15;4.22;;;1.40;;
14933;SDS011;7560;51.364;12.384;2023-03-05T04:46:16;2.25;;;1.10;;
14933;SDS011;7560;51.364;12.384;2023-03-05T04:51:18;3.97;;;1.35;;
14933;SDS011;7560;51.364;12.384;2023-03-05T04:56:20;3.05;;;1.00;;
14933;SDS011;7560;51.364;12.384;2023-03-05T05:01:22;3.00;;;1.15;;
14933;SDS011;7560;51.364;12.384;2023-03-05T05:06:24;2.28;;;1.02;;
14933;SDS011;7560;51.364;12.384;2023-03-05T05:11:25;3.00;;;1.20;;
14933;SDS011;7560;51.364;12.384;2023-03-05T05:16:27;2.38;;;1.25;;
14933;SDS011;7560;51.364;12.384;2023-03-05T05:21:29;3.53;;;1.17;;
14933;SDS011;7560;51.364;12.384;2023-03-05T05:26:31;2.15;;;1.40;;
14933;SDS011;7560;51.364;12.384;2023-03-05T05:31:33;2.30;;;1.02;;
14933;SDS011;7560;51.364;12.384;2023-03-05T05:36:34;3.45;;;1.25;;
14933;SDS011;7560;51.364;12.384;2023-03-05T05:41:36;6.80;;;1.15;;
14933;SDS011;7560;51.364;12.384;2023-03-05T05:46:38;3.03;;;1.00;;
14933;SDS011;7560;51.364;12.384;2023-03-05T05:51:40;2.65;;;1.10;;
14933;SDS011;7560;51.364;12.384;2023-03-05T05:56:41;3.17;;;1.00;;
14933;SDS011;7560;51.364;12.384;2023-03-05T06:01:43;3.15;;;0.82;;
14933;SDS011;7560;51.364;12.384;2023-03-05T06:06:45;2.58;;;1.08;;
14933;SDS011;7560;51.364;12.384;2023-03-05T06:11:47;2.55;;;1.02;;
14933;SDS011;7560;51.364;12.384;2023-03-05T06:16:48;5.80;;;1.20;;
14933;SDS011;7560;51.364;12.384;2023-03-05T06:21:50;1.75;;;0.85;;
14933;SDS011;7560;51.364;12.384;2023-03-05T06:26:52;1.10;;;0.90;;
14933;SDS011;7560;51.364;12.384;2023-03-05T06:31:54;4.85;;;1.23;;
14933;SDS011;7560;51.364;12.384;2023-03-05T06:36:55;2.33;;;1.17;;
14933;SDS011;7560;51.364;12.384;2023-03-05T06:41:57;3.13;;;1.15;;
14933;SDS011;7560;51.364;12.384;2023-03-05T06:46:59;2.25;;;1.02;;
14933;SDS011;7560;51.364;12.384;2023-03-05T06:52:01;3.65;;;1.10;;
14933;SDS011;7560;51.364;12.384;2023-03-05T06:57:03;3.10;;;1.48;;
14933;SDS011;7560;51.364;12.384;2023-03-05T07:02:05;2.15;;;1.20;;
14933;SDS011;7560;51.364;12.384;2023-03-05T07:07:09;2.10;;;1.50;;
14933;SDS011;7560;51.364;12.384;2023-03-05T07:12:11;6.18;;;1.30;;
14933;SDS011;7560;51.364;12.384;2023-03-05T07:17:13;2.10;;;1.20;;
14933;SDS011;7560;51.364;12.384;2023-03-05T07:22:15;3.95;;;1.45;;
14933;SDS011;7560;51.364;12.384;2023-03-05T07:27:17;3.47;;;1.23;;
14933;SDS011;7560;51.364;12.384;2023-03-05T07:32:19;4.63;;;1.60;;
14933;SDS011;7560;51.364;12.384;2023-03-05T07:37:21;2.42;;;1.40;;
14933;SDS011;7560;51.364;12.384;2023-03-05T07:42:23;2.67;;;1.65;;
14933;SDS011;7560;51.364;12.384;2023-03-05T07:47:24;6.70;;;2.00;;
14933;SDS011;7560;51.364;12.384;2023-03-05T07:52:26;3.05;;;1.65;;
14933;SDS011;7560;51.364;12.384;2023-03-05T07:57:28;4.30;;;1.88;;
14933;SDS011;7560;51.364;12.384;2023-03-05T08:02:29;5.65;;;1.90;;
14933;SDS011;7560;51.364;12.384;2023-03-05T08:07:31;5.88;;;2.42;;
14933;SDS011;7560;51.364;12.384;2023-03-05T08:12:33;5.55;;;1.70;;
14933;SDS011;7560;51.364;12.384;2023-03-05T08:17:34;5.40;;;1.80;;
14933;SDS011;7560;51.364;12.384;2023-03-05T08:22:36;3.60;;;1.67;;
14933;SDS011;7560;51.364;12.384;2023-03-05T08:27:39;2.50;;;1.65;;
14933;SDS011;7560;51.364;12.384;2023-03-05T08:32:42;4.40;;;1.75;;
14933;SDS011;7560;51.364;12.384;2023-03-05T08:37:44;4.45;;;1.67;;
14933;SDS011;7560;51.364;12.384;2023-03-05T08:42:46;5.15;;;2.00;;
14933;SDS011;7560;51.364;12.384;2023-03-05T08:47:48;3.85;;;2.03;;
14933;SDS011;7560;51.364;12.384;2023-03-05T08:52:50;4.13;;;2.00;;
14933;SDS011;7560;51.364;12.384;2023-03-05T08:57:52;3.10;;;1.85;;
14933;SDS011;7560;51.364;12.384;2023-03-05T09:02:53;3.10;;;2.00;;
14933;SDS011;7560;51.364;12.384;2023-03-05T09:07:55;5.10;;;2.25;;
14933;SDS011;7560;51.364;12.384;2023-03-05T09:12:59;5.97;;;2.13;;
14933;SDS011;7560;51.364;12.384;2023-03-05T09:18:00;7.38;;;3.00;;
14933;SDS011;7560;51.364;12.384;2023-03-05T09:23:02;3.08;;;2.60;;
14933;SDS011;7560;51.364;12.384;2023-03-05T09:28:04;3.83;;;2.20;;
14933;SDS011;7560;51.364;12.384;2023-03-05T09:33:06;3.42;;;2.22;;
14933;SDS011;7560;51.364;12.384;2023-03-05T09:38:08;4.28;;;3.13;;
14933;SDS011;7560;51.364;12.384;2023-03-05T09:43:29;4.53;;;2.67;;
14933;SDS011;7560;51.364;12.384;2023-03-05T09:48:50;10.00;;;4.10;;
14933;SDS011;7560;51.364;12.384;2023-03-05T09:54:12;4.68;;;2.90;;
14933;SDS011;7560;51.364;12.384;2023-03-05T09:59:24;7.47;;;4.88;;
14933;SDS011;7560;51.364;12.384;2023-03-05T10:04:44;6.35;;;2.92;;
14933;SDS011;7560;51.364;12.384;2023-03-05T10:10:01;9.15;;;3.67;;
14933;SDS011;7560;51.364;12.384;2023-03-05T10:15:14;4.25;;;2.70;;
14933;SDS011;7560;51.364;12.384;2023-03-05T10:20:34;4.43;;;2.60;;
14933;SDS011;7560;51.364;12.384;2023-03-05T10:25:55;4.47;;;2.50;;
14933;SDS011;7560;51.364;12.384;2023-03-05T10:36:39;8.18;;;2.45;;
14933;SDS011;7560;51.364;12.384;2023-03-05T10:41:53;5.47;;;3.05;;
14933;SDS011;7560;51.364;12.384;2023-03-05T10:47:20;3.85;;;2.80;;
14933;SDS011;7560;51.364;12.384;2023-03-05T10:52:35;5.45;;;2.20;;
14933;SDS011;7560;51.364;12.384;2023-03-05T10:57:40;2.92;;;2.33;;
14933;SDS011;7560;51.364;12.384;2023-03-05T11:13:32;3.97;;;2.30;;
14933;SDS011;7560;51.364;12.384;2023-03-05T11:18:36;4.07;;;2.20;;
14933;SDS011;7560;51.364;12.384;2023-03-05T11:23:37;4.47;;;1.98;;
14933;SDS011;7560;51.364;12.384;2023-03-05T11:34:01;4.88;;;3.35;;
14933;SDS011;7560;51.364;12.384;2023-03-05T11:49:40;4.43;;;2.10;;
14933;SDS011;7560;51.364;12.384;2023-03-05T11:54:50;2.50;;;1.80;;
14933;SDS011;7560;51.364;12.384;2023-03-05T11:59:53;3.38;;;1.83;;
14933;SDS011;7560;51.364;12.384;2023-03-05T12:04:58;4.07;;;2.17;;
14933;SDS011;7560;51.364;12.384;2023-03-05T12:10:03;3.17;;;1.95;;
14933;SDS011;7560;51.364;12.384;2023-03-05T12:15:27;3.42;;;1.80;;
14933;SDS011;7560;51.364;12.384;2023-03-05T12:20:47;2.45;;;1.60;;
14933;SDS011;7560;51.364;12.384;2023-03-05T12:25:51;2.13;;;1.30;;
14933;SDS011;7560;51.364;12.384;2023-03-05T12:31:02;3.35;;;1.60;;
14933;SDS011;7560;51.364;12.384;2023-03-05T12:46:26;2.95;;;1.80;;
14933;SDS011;7560;51.364;12.384;2023-03-05T12:51:34;1.77;;;1.55;;
14933;SDS011;7560;51.364;12.384;2023-03-05T12:56:38;2.70;;;1.70;;
14933;SDS011;7560;51.364;12.384;2023-03-05T13:01:49;1.33;;;1.08;;
14933;SDS011;7560;51.364;12.384;2023-03-05T13:06:59;3.92;;;1.58;;
14933;SDS011;7560;51.364;12.384;2023-03-05T13:12:08;1.90;;;1.20;;
14933;SDS011;7560;51.364;12.384;2023-03-05T13:17:30;4.20;;;1.33;;
14933;SDS011;7560;51.364;12.384;2023-03-05T13:22:34;11.88;;;6.28;;
14933;SDS011;7560;51.364;12.384;2023-03-05T13:27:36;1.60;;;1.33;;
14933;SDS011;7560;51.364;12.384;2023-03-05T13:32:38;2.80;;;1.75;;
14933;SDS011;7560;51.364;12.384;2023-03-05T13:37:40;6.15;;;2.60;;
14933;SDS011;7560;51.364;12.384;2023-03-05T13:42:44;4.88;;;2.40;;
14933;SDS011;7560;51.364;12.384;2023-03-05T13:47:53;3.13;;;2.17;;
14933;SDS011;7560;51.364;12.384;2023-03-05T13:58:40;2.80;;;2.00;;
14933;SDS011;7560;51.364;12.384;2023-03-05T14:03:53;2.45;;;1.40;;
14933;SDS011;7560;51.364;12.384;2023-03-05T14:09:56;3.92;;;1.73;;
14933;SDS011;7560;51.364;12.384;2023-03-05T14:14:38;2.90;;;2.05;;
14933;SDS011;7560;51.364;12.384;2023-03-05T14:19:44;2.00;;;1.67;;
14933;SDS011;7560;51.364;12.384;2023-03-05T14:24:52;5.65;;;2.22;;
14933;SDS011;7560;51.364;12.384;2023-03-05T14:29:53;3.13;;;1.40;;
14933;SDS011;7560;51.364;12.384;2023-03-05T14:34:56;2.70;;;1.33;;
14933;SDS011;7560;51.364;12.384;2023-03-05T14:40:04;2.30;;;1.40;;
14933;SDS011;7560;51.364;12.384;2023-03-05T14:45:10;2.13;;;1.40;;
14933;SDS011;7560;51.364;12.384;2023-03-05T14:50:18;3.33;;;1.60;;
14933;SDS011;7560;51.364;12.384;2023-03-05T14:55:23;2.85;;;1.70;;
14933;SDS011;7560;51.364;12.384;2023-03-05T15:00:28;2.45;;;1.92;;
14933;SDS011;7560;51.364;12.384;2023-03-05T15:05:30;4.90;;;1.60;;
14933;SDS011;7560;51.364;12.384;2023-03-05T15:10:33;3.22;;;1.50;;
14933;SDS011;7560;51.364;12.384;2023-03-05T15:15:34;3.45;;;1.80;;
14933;SDS011;7560;51.364;12.384;2023-03-05T15:20:36;4.18;;;2.42;;
14933;SDS011;7560;51.364;12.384;2023-03-05T15:25:39;2.33;;;1.48;;
14933;SDS011;7560;51.364;12.384;2023-03-05T15:30:43;3.63;;;1.80;;
14933;SDS011;7560;51.364;12.384;2023-03-05T15:35:46;3.75;;;2.03;;
14933;SDS011;7560;51.364;12.384;2023-03-05T15:40:48;6.05;;;2.17;;
14933;SDS011;7560;51.364;12.384;2023-03-05T15:45:50;2.50;;;1.65;;
14933;SDS011;7560;51.364;12.384;2023-03-05T15:50:52;2.85;;;1.60;;
14933;SDS011;7560;51.364;12.384;2023-03-05T15:55:54;2.65;;;1.73;;
14933;SDS011;7560;51.364;12.384;2023-03-05T16:00:55;3.47;;;1.40;;
14933;SDS011;7560;51.364;12.384;2023-03-05T16:05:57;3.60;;;1.30;;
14933;SDS011;7560;51.364;12.384;2023-03-05T16:10:59;4.10;;;1.20;;
14933;SDS011;7560;51.364;12.384;2023-03-05T16:16:02;1.70;;;1.35;;
14933;SDS011;7560;51.364;12.384;2023-03-05T16:21:06;3.50;;;1.77;;
14933;SDS011;7560;51.364;12.384;2023-03-05T16:26:08;2.63;;;1.40;;
14933;SDS011;7560;51.364;12.384;2023-03-05T16:31:11;2.50;;;1.92;;
14933;SDS011;7560;51.364;12.384;2023-03-05T16:36:17;2.78;;;1.60;;
14933;SDS011;7560;51.364;12.384;2023-03-05T16:41:29;5.05;;;2.08;;
14933;SDS011;7560;51.364;12.384;2023-03-05T16:46:31;3.10;;;1.85;;
14933;SDS011;7560;51.364;12.384;2023-03-05T16:51:35;3.30;;;1.80;;
14933;SDS011;7560;51.364;12.384;2023-03-05T16:56:37;3.25;;;2.42;;
14933;SDS011;7560;51.364;12.384;2023-03-05T17:01:39;2.92;;;2.03;;
14933;SDS011;7560;51.364;12.384;2023-03-05T17:06:43;3.95;;;2.70;;
14933;SDS011;7560;51.364;12.384;2023-03-05T17:11:46;3.92;;;2.20;;
14933;SDS011;7560;51.364;12.384;2023-03-05T17:16:48;15.15;;;9.18;;
14933;SDS011;7560;51.364;12.384;2023-03-05T17:21:50;5.03;;;2.58;;
14933;SDS011;7560;51.364;12.384;2023-03-05T17:26:52;4.30;;;2.80;;
14933;SDS011;7560;51.364;12.384;2023-03-05T17:31:54;4.47;;;2.58;;
14933;SDS011;7560;51.364;12.384;2023-03-05T17:36:56;5.72;;;2.38;;
14933;SDS011;7560;51.364;12.384;2023-03-05T17:41:58;3.45;;;2.53;;
14933;SDS011;7560;51.364;12.384;2023-03-05T17:47:00;6.85;;;2.80;;
14933;SDS011;7560;51.364;12.384;2023-03-05T17:52:02;4.75;;;2.50;;
14933;SDS011;7560;51.364;12.384;2023-03-05T17:57:03;3.83;;;2.53;;
14933;SDS011;7560;51.364;12.384;2023-03-05T18:02:05;3.50;;;1.90;;
14933;SDS011;7560;51.364;12.384;2023-03-05T18:07:07;3.95;;;2.35;;
14933;SDS011;7560;51.364;12.384;2023-03-05T18:12:09;4.07;;;2.70;;
14933;SDS011;7560;51.364;12.384;2023-03-05T18:17:11;3.97;;;2.30;;
14933;SDS011;7560;51.364;12.384;2023-03-05T18:22:13;3.47;;;2.08;;
14933;SDS011;7560;51.364;12.384;2023-03-05T18:27:15;4.15;;;2.35;;
14933;SDS011;7560;51.364;12.384;2023-03-05T18:32:16;9.02;;;3.28;;
14933;SDS011;7560;51.364;12.384;2023-03-05T18:37:18;6.15;;;3.03;;
14933;SDS011;7560;51.364;12.384;2023-03-05T18:42:20;4.95;;;2.60;;
14933;SDS011;7560;51.364;12.384;2023-03-05T18:47:22;3.83;;;3.25;;
14933;SDS011;7560;51.364;12.384;2023-03-05T18:52:23;3.70;;;2.70;;
14933;SDS011;7560;51.364;12.384;2023-03-05T18:57:25;4.90;;;3.20;;
14933;SDS011;7560;51.364;12.384;2023-03-05T19:02:27;4.95;;;3.30;;
14933;SDS011;7560;51.364;12.384;2023-03-05T19:07:30;5.47;;;3.00;;
14933;SDS011;7560;51.364;12.384;2023-03-05T19:12:35;4.60;;;2.67;;
14933;SDS011;7560;51.364;12.384;2023-03-05T19:17:45;4.93;;;3.22;;
14933;SDS011;7560;51.364;12.384;2023-03-05T19:22:49;6.78;;;3.90;;
14933;SDS011;7560;51.364;12.384;2023-03-05T19:27:51;7.63;;;3.90;;
14933;SDS011;7560;51.364;12.384;2023-03-05T19:32:53;6.53;;;3.60;;
14933;SDS011;7560;51.364;12.384;2023-03-05T19:37:54;5.47;;;3.90;;
14933;SDS011;7560;51.364;12.384;2023-03-05T19:42:56;8.18;;;4.75;;
14933;SDS011;7560;51.364;12.384;2023-03-05T19:47:58;6.35;;;4.10;;
14933;SDS011;7560;51.364;12.384;2023-03-05T19:53:01;5.70;;;3.80;;
14933;SDS011;7560;51.364;12.384;2023-03-05T19:58:03;6.43;;;4.15;;
14933;SDS011;7560;51.364;12.384;2023-03-05T20:03:05;6.20;;;3.47;;
14933;SDS011;7560;51.364;12.384;2023-03-05T20:08:07;4.28;;;3.13;;
14933;SDS011;7560;51.364;12.384;2023-03-05T20:13:09;4.32;;;2.60;;
14933;SDS011;7560;51.364;12.384;2023-03-05T20:18:10;5.78;;;2.95;;
14933;SDS011;7560;51.364;12.384;2023-03-05T20:23:12;2.75;;;2.40;;
14933;SDS011;7560;51.364;12.384;2023-03-05T20:28:14;3.35;;;2.40;;
14933;SDS011;7560;51.364;12.384;2023-03-05T20:33:16;3.90;;;2.45;;
14933;SDS011;7560;51.364;12.384;2023-03-05T20:43:21;2.58;;;2.17;;
14933;SDS011;7560;51.364;12.384;2023-03-05T20:48:24;2.78;;;2.08;;
14933;SDS011;7560;51.364;12.384;2023-03-05T20:53:27;3.38;;;2.38;;
14933;SDS011;7560;51.364;12.384;2023-03-05T20:58:29;3.47;;;2.28;;
14933;SDS011;7560;51.364;12.384;2023-03-05T21:03:31;3.28;;;2.40;;
14933;SDS011;7560;51.364;12.384;2023-03-05T21:08:34;3.08;;;2.50;;
14933;SDS011;7560;51.364;12.384;2023-03-05T21:13:37;4.55;;;2.65;;
14933;SDS011;7560;51.364;12.384;2023-03-05T21:18:39;3.70;;;2.50;;
14933;SDS011;7560;51.364;12.384;2023-03-05T21:23:41;4.68;;;2.75;;
14933;SDS011;7560;51.364;12.384;2023-03-05T21:28:43;4.32;;;2.55;;
14933;SDS011;7560;51.364;12.384;2023-03-05T21:33:45;5.53;;;2.90;;
14933;SDS011;7560;51.364;12.384;2023-03-05T21:38:47;3.50;;;2.25;;
14933;SDS011;7560;51.364;12.384;2023-03-05T21:43:49;5.32;;;2.65;;
14933;SDS011;7560;51.364;12.384;2023-03-05T21:48:51;3.42;;;2.55;;
14933;SDS011;7560;51.364;12.384;2023-03-05T21:53:53;4.05;;;2.70;;
14933;SDS011;7560;51.364;12.384;2023-03-05T21:58:55;4.00;;;2.80;;
14933;SDS011;7560;51.364;12.384;2023-03-05T22:03:57;4.70;;;2.78;;
14933;SDS011;7560;51.364;12.384;2023-03-05T22:08:59;6.00;;;3.00;;
14933;SDS011;7560;51.364;12.384;2023-03-05T22:14:01;3.63;;;2.70;;
14933;SDS011;7560;51.364;12.384;2023-03-05T22:19:03;5.57;;;3.40;;
14933;SDS011;7560;51.364;12.384;2023-03-05T22:24:05;3.72;;;2.80;;
14933;SDS011;7560;51.364;12.384;2023-03-05T22:29:07;4.78;;;2.95;;
14933;SDS011;7560;51.364;12.384;2023-03-05T22:34:11;4.13;;;2.72;;
14933;SDS011;7560;51.364;12.384;2023-03-05T22:39:13;5.50;;;3.10;;
14933;SDS011;7560;51.364;12.384;2023-03-05T22:44:15;4.78;;;2.95;;
14933;SDS011;7560;51.364;12.384;2023-03-05T22:49:17;6.05;;;2.90;;
14933;SDS011;7560;51.364;12.384;2023-03-05T22:54:18;5.57;;;3.30;;
14933;SDS011;7560;51.364;12.384;2023-03-05T22:59:20;5.82;;;3.40;;
14933;SDS011;7560;51.364;12.384;2023-03-05T23:04:23;4.78;;;3.42;;
14933;SDS011;7560;51.364;12.384;2023-03-05T23:09:40;5.22;;;3.42;;
14933;SDS011;7560;51.364;12.384;2023-03-05T23:14:42;6.70;;;3.25;;
14933;SDS011;7560;51.364;12.384;2023-03-05T23:19:44;5.85;;;3.58;;
14933;SDS011;7560;51.364;12.384;2023-03-05T23:24:46;6.05;;;3.63;;
14933;SDS011;7560;51.364;12.384;2023-03-05T23:35:18;6.60;;;4.22;;
14933;SDS011;7560;51.364;12.384;2023-03-05T23:40:23;6.72;;;3.65;;
14933;SDS011;7560;51.364;12.384;2023-03-05T23:45:27;7.18;;;4.10;;
14933;SDS011;7560;51.364;12.384;2023-03-05T23:50:31;6.40;;;4.40;;
14933;SDS011;7560;51.364;12.384;2023-03-05T23:55:35;7.07;;;4.15;;
